Terminal Aerodrome Forecast
Issued by NWS Cleveland, OH

Home | Current Version | Previous Version | Text Only | Print | Product List | Glossary On
Versions: 1 2 3 4 5 6 7 8 9 10 11 12 13 14 15 16 17 18
013
FTUS41 KCLE 042323
TAFMFD
TAF
KMFD 042323Z 0500/0524 11010KT P6SM OVC090
      TEMPO 0500/0501 5SM -RASN OVC025
     FM050100 12008KT 3SM -RASN BR OVC015
      TEMPO 0501/0505 2SM -RASN OVC006
     FM050500 22010KT P6SM OVC008
     FM051200 27010KT P6SM OVC012
     FM051600 27008KT P6SM OVC025
     FM052100 VRB03KT P6SM SCT250=

USA.gov is the U.S. government's official web portal to all federal, state and local government web resources and services.